Pollock, SD

8:40 PM CST on February 22, 2017 (GMT -0600)
Farm | | Change Station

Elev 1952 ft 46.12 °N, 100.26 °W | Updated 9 seconds ago

Mostly Cloudy
Mostly Cloudy
30.9 °F
Feels Like 22 °F
N
9.8
Wind Variable Wind from North
Gusts 12.3 mph

Today
High -- | Low -- °F
--% Chance of Precip.
Yesterday
High -- | Low -- °F
Precip. -- in
Pressure 29.94 in
Visibility 10.0 miles
Clouds Mostly Cloudy 1500 ft
Overcast 2000 ft
Windchill 22 °F
Dew Point 25 °F
Humidity 77%
Rainfall 0.25 in
Snow Depth Not available.
7:31 AM 6:18 PM
Waning Crescent, 13% visible
SPECI KMBG 230223Z AUTO 36005KT 10SM BKN015 OVC020 01/M02 A2994 RMK AO2 T00111022
Pressure 29.94 in
Visibility 10.0 miles
Clouds Mostly Cloudy 1500 ft
Overcast 2000 ft
Windchill 22 °F
Dew Point 25 °F
Humidity 77%
Rainfall 0.25 in
Snow Depth Not available.
7:31 AM 6:18 PM
Waning Crescent, 13% visible
SPECI KMBG 230223Z AUTO 36005KT 10SM BKN015 OVC020 01/M02 A2994 RMK AO2 T00111022

Get Your Daily Forecast Email!

Thanks for signing up!

Be on the lookout for a verification email in your inbox.

You'll start receiving the daily forecast at 8 AM.

×

10-Day Weather Forecast

Almanac

Astronomy

Feb. 22, 2017 Rise Set
Actual Time
Civil Twilight
Nautical Twilight
Astronomical Twilight
Moon
Length of Visible Light
Length of Day
Tomorrow will be .
, % of the Moon is Illuminated

Today's Extremes

State Highs State Lows

Community

WunderPhotos

Upload Photos

1,962,540 photos uploaded!

WunderBlog® & News

Nearby

Air Quality

  Air Quality AQ Index Pollutant
Not available.

Snow Depth

Station Depth Elevation

Earthquake Activity

City Distance Mag. Time & Date
Minimum magnitude displayed is 2.5.

Coastal Water Temperatures

Place Temperature

Stations

Nearby Weather Stations

Station Location Temp. Windchill Dew Point Humidity Wind Precip. Elev Updated Type
                   

Watches & Warnings

There are currently no watches in effect.